sensor_id;sensor_type;location;lat;lon;timestamp;P1;durP1;ratioP1;P2;durP2;ratioP2
13048;SDS011;6591;51.446;5.404;2023-02-11T00:01:11;14.53;;;9.77;;
13048;SDS011;6591;51.446;5.404;2023-02-11T00:03:51;15.53;;;9.43;;
13048;SDS011;6591;51.446;5.404;2023-02-11T00:06:19;16.07;;;9.50;;
13048;SDS011;6591;51.446;5.404;2023-02-11T00:08:50;13.17;;;9.17;;
13048;SDS011;6591;51.446;5.404;2023-02-11T00:11:18;12.77;;;9.20;;
13048;SDS011;6591;51.446;5.404;2023-02-11T00:13:47;13.60;;;8.87;;
13048;SDS011;6591;51.446;5.404;2023-02-11T00:16:16;12.43;;;8.40;;
13048;SDS011;6591;51.446;5.404;2023-02-11T00:18:46;11.77;;;8.30;;
13048;SDS011;6591;51.446;5.404;2023-02-11T00:21:22;13.67;;;8.97;;
13048;SDS011;6591;51.446;5.404;2023-02-11T00:23:51;13.83;;;8.37;;
13048;SDS011;6591;51.446;5.404;2023-02-11T00:26:21;13.30;;;8.73;;
13048;SDS011;6591;51.446;5.404;2023-02-11T00:28:52;12.83;;;8.70;;
13048;SDS011;6591;51.446;5.404;2023-02-11T00:31:20;13.57;;;8.90;;
13048;SDS011;6591;51.446;5.404;2023-02-11T00:33:49;13.17;;;8.13;;
13048;SDS011;6591;51.446;5.404;2023-02-11T00:36:18;13.00;;;8.07;;
13048;SDS011;6591;51.446;5.404;2023-02-11T00:38:55;9.47;;;7.27;;
13048;SDS011;6591;51.446;5.404;2023-02-11T00:41:23;9.77;;;7.47;;
13048;SDS011;6591;51.446;5.404;2023-02-11T00:43:51;12.03;;;7.90;;
13048;SDS011;6591;51.446;5.404;2023-02-11T00:46:19;12.37;;;8.00;;
13048;SDS011;6591;51.446;5.404;2023-02-11T00:48:47;14.70;;;8.20;;
13048;SDS011;6591;51.446;5.404;2023-02-11T00:51:19;11.47;;;7.90;;
13048;SDS011;6591;51.446;5.404;2023-02-11T00:58:19;13.03;;;7.47;;
13048;SDS011;6591;51.446;5.404;2023-02-11T01:00:48;12.83;;;7.73;;
13048;SDS011;6591;51.446;5.404;2023-02-11T01:03:15;10.23;;;7.47;;
13048;SDS011;6591;51.446;5.404;2023-02-11T01:05:41;12.13;;;7.57;;
13048;SDS011;6591;51.446;5.404;2023-02-11T01:08:08;9.63;;;7.07;;
13048;SDS011;6591;51.446;5.404;2023-02-11T01:10:36;10.43;;;7.53;;
13048;SDS011;6591;51.446;5.404;2023-02-11T01:13:03;9.97;;;6.53;;
13048;SDS011;6591;51.446;5.404;2023-02-11T01:15:32;10.53;;;6.60;;
13048;SDS011;6591;51.446;5.404;2023-02-11T01:17:59;9.53;;;6.73;;
13048;SDS011;6591;51.446;5.404;2023-02-11T01:20:27;10.80;;;7.17;;
13048;SDS011;6591;51.446;5.404;2023-02-11T01:22:55;10.33;;;6.40;;
13048;SDS011;6591;51.446;5.404;2023-02-11T01:25:22;11.17;;;6.83;;
13048;SDS011;6591;51.446;5.404;2023-02-11T01:27:49;9.10;;;6.30;;
13048;SDS011;6591;51.446;5.404;2023-02-11T01:30:16;11.43;;;7.40;;
13048;SDS011;6591;51.446;5.404;2023-02-11T01:32:45;9.17;;;6.50;;
13048;SDS011;6591;51.446;5.404;2023-02-11T01:35:13;11.90;;;6.37;;
13048;SDS011;6591;51.446;5.404;2023-02-11T01:37:40;10.90;;;6.37;;
13048;SDS011;6591;51.446;5.404;2023-02-11T01:40:10;9.30;;;6.83;;
13048;SDS011;6591;51.446;5.404;2023-02-11T01:42:42;10.60;;;6.73;;
13048;SDS011;6591;51.446;5.404;2023-02-11T01:48:15;8.53;;;6.53;;
13048;SDS011;6591;51.446;5.404;2023-02-11T01:51:01;9.83;;;6.03;;
13048;SDS011;6591;51.446;5.404;2023-02-11T01:53:34;11.93;;;6.13;;
13048;SDS011;6591;51.446;5.404;2023-02-11T01:56:22;10.43;;;6.30;;
13048;SDS011;6591;51.446;5.404;2023-02-11T01:59:16;10.47;;;6.23;;
13048;SDS011;6591;51.446;5.404;2023-02-11T02:01:58;10.70;;;6.37;;
13048;SDS011;6591;51.446;5.404;2023-02-11T02:04:32;9.47;;;5.97;;
13048;SDS011;6591;51.446;5.404;2023-02-11T02:07:16;8.07;;;6.30;;
13048;SDS011;6591;51.446;5.404;2023-02-11T02:10:06;12.80;;;6.30;;
13048;SDS011;6591;51.446;5.404;2023-02-11T02:12:42;8.10;;;6.57;;
13048;SDS011;6591;51.446;5.404;2023-02-11T02:15:26;9.57;;;6.23;;
13048;SDS011;6591;51.446;5.404;2023-02-11T02:36:31;9.67;;;5.80;;
13048;SDS011;6591;51.446;5.404;2023-02-11T02:39:14;9.70;;;6.37;;
13048;SDS011;6591;51.446;5.404;2023-02-11T02:41:49;8.07;;;5.40;;
13048;SDS011;6591;51.446;5.404;2023-02-11T02:44:19;9.73;;;5.80;;
13048;SDS011;6591;51.446;5.404;2023-02-11T02:46:47;8.53;;;5.70;;
13048;SDS011;6591;51.446;5.404;2023-02-11T02:49:15;9.03;;;6.03;;
13048;SDS011;6591;51.446;5.404;2023-02-11T02:52:01;9.93;;;6.07;;
13048;SDS011;6591;51.446;5.404;2023-02-11T03:00:19;11.87;;;5.77;;
13048;SDS011;6591;51.446;5.404;2023-02-11T03:11:11;12.80;;;6.10;;
13048;SDS011;6591;51.446;5.404;2023-02-11T03:13:44;8.23;;;5.47;;
13048;SDS011;6591;51.446;5.404;2023-02-11T03:16:16;9.10;;;5.53;;
13048;SDS011;6591;51.446;5.404;2023-02-11T03:19:02;13.07;;;5.70;;
13048;SDS011;6591;51.446;5.404;2023-02-11T03:21:45;11.83;;;5.30;;
13048;SDS011;6591;51.446;5.404;2023-02-11T03:24:19;10.03;;;5.50;;
13048;SDS011;6591;51.446;5.404;2023-02-11T03:26:56;8.73;;;5.23;;
13048;SDS011;6591;51.446;5.404;2023-02-11T03:29:32;9.60;;;5.67;;
13048;SDS011;6591;51.446;5.404;2023-02-11T03:34:57;8.63;;;5.83;;
13048;SDS011;6591;51.446;5.404;2023-02-11T03:37:56;8.30;;;5.90;;
13048;SDS011;6591;51.446;5.404;2023-02-11T03:40:36;12.50;;;5.73;;
13048;SDS011;6591;51.446;5.404;2023-02-11T03:43:11;10.17;;;5.77;;
13048;SDS011;6591;51.446;5.404;2023-02-11T03:45:56;8.23;;;4.90;;
13048;SDS011;6591;51.446;5.404;2023-02-11T03:48:47;10.63;;;5.73;;
13048;SDS011;6591;51.446;5.404;2023-02-11T03:51:17;7.87;;;5.00;;
13048;SDS011;6591;51.446;5.404;2023-02-11T03:53:49;7.50;;;5.40;;
13048;SDS011;6591;51.446;5.404;2023-02-11T03:56:22;9.60;;;5.60;;
13048;SDS011;6591;51.446;5.404;2023-02-11T03:58:55;8.77;;;5.10;;
13048;SDS011;6591;51.446;5.404;2023-02-11T04:01:22;10.03;;;6.03;;
13048;SDS011;6591;51.446;5.404;2023-02-11T04:03:50;10.97;;;5.80;;
13048;SDS011;6591;51.446;5.404;2023-02-11T04:06:17;12.47;;;5.87;;
13048;SDS011;6591;51.446;5.404;2023-02-11T04:08:44;9.80;;;6.03;;
13048;SDS011;6591;51.446;5.404;2023-02-11T04:11:11;9.30;;;5.37;;
13048;SDS011;6591;51.446;5.404;2023-02-11T04:13:38;9.53;;;5.83;;
13048;SDS011;6591;51.446;5.404;2023-02-11T04:16:06;9.47;;;5.47;;
13048;SDS011;6591;51.446;5.404;2023-02-11T04:18:33;9.33;;;5.67;;
13048;SDS011;6591;51.446;5.404;2023-02-11T04:21:00;9.80;;;5.77;;
13048;SDS011;6591;51.446;5.404;2023-02-11T04:23:27;10.00;;;5.47;;
13048;SDS011;6591;51.446;5.404;2023-02-11T04:25:54;9.37;;;5.60;;
13048;SDS011;6591;51.446;5.404;2023-02-11T04:28:21;8.87;;;5.70;;
13048;SDS011;6591;51.446;5.404;2023-02-11T04:30:49;10.23;;;5.70;;
13048;SDS011;6591;51.446;5.404;2023-02-11T04:33:16;8.33;;;5.33;;
13048;SDS011;6591;51.446;5.404;2023-02-11T04:35:43;11.33;;;6.07;;
13048;SDS011;6591;51.446;5.404;2023-02-11T04:38:11;9.27;;;5.80;;
13048;SDS011;6591;51.446;5.404;2023-02-11T04:40:38;11.33;;;5.63;;
13048;SDS011;6591;51.446;5.404;2023-02-11T04:43:05;9.30;;;6.10;;
13048;SDS011;6591;51.446;5.404;2023-02-11T04:45:33;10.30;;;6.43;;
13048;SDS011;6591;51.446;5.404;2023-02-11T04:48:01;10.27;;;5.73;;
13048;SDS011;6591;51.446;5.404;2023-02-11T04:50:29;8.83;;;5.77;;
13048;SDS011;6591;51.446;5.404;2023-02-11T04:52:56;11.93;;;6.67;;
13048;SDS011;6591;51.446;5.404;2023-02-11T04:55:23;12.13;;;6.00;;
13048;SDS011;6591;51.446;5.404;2023-02-11T04:57:50;11.13;;;6.10;;
13048;SDS011;6591;51.446;5.404;2023-02-11T05:00:17;11.40;;;6.10;;
13048;SDS011;6591;51.446;5.404;2023-02-11T05:02:44;9.30;;;6.00;;
13048;SDS011;6591;51.446;5.404;2023-02-11T05:05:11;8.87;;;6.03;;
13048;SDS011;6591;51.446;5.404;2023-02-11T05:07:38;10.33;;;5.67;;
13048;SDS011;6591;51.446;5.404;2023-02-11T05:10:06;10.77;;;6.90;;
13048;SDS011;6591;51.446;5.404;2023-02-11T05:12:33;11.60;;;6.37;;
13048;SDS011;6591;51.446;5.404;2023-02-11T05:15:00;13.17;;;6.47;;
13048;SDS011;6591;51.446;5.404;2023-02-11T05:17:27;13.33;;;6.43;;
13048;SDS011;6591;51.446;5.404;2023-02-11T05:19:54;8.43;;;6.20;;
13048;SDS011;6591;51.446;5.404;2023-02-11T05:22:22;11.17;;;6.23;;
13048;SDS011;6591;51.446;5.404;2023-02-11T05:24:49;13.63;;;6.93;;
13048;SDS011;6591;51.446;5.404;2023-02-11T05:27:16;9.90;;;6.97;;
13048;SDS011;6591;51.446;5.404;2023-02-11T05:29:43;12.07;;;6.93;;
13048;SDS011;6591;51.446;5.404;2023-02-11T05:32:10;10.07;;;6.23;;
13048;SDS011;6591;51.446;5.404;2023-02-11T05:34:37;9.50;;;6.70;;
13048;SDS011;6591;51.446;5.404;2023-02-11T05:37:05;11.03;;;7.33;;
13048;SDS011;6591;51.446;5.404;2023-02-11T05:39:32;11.30;;;7.27;;
13048;SDS011;6591;51.446;5.404;2023-02-11T05:41:59;10.00;;;7.10;;
13048;SDS011;6591;51.446;5.404;2023-02-11T05:44:26;11.50;;;7.53;;
13048;SDS011;6591;51.446;5.404;2023-02-11T05:46:53;13.50;;;7.40;;
13048;SDS011;6591;51.446;5.404;2023-02-11T05:49:20;12.33;;;7.70;;
13048;SDS011;6591;51.446;5.404;2023-02-11T05:51:48;10.60;;;7.80;;
13048;SDS011;6591;51.446;5.404;2023-02-11T05:54:15;12.17;;;8.07;;
13048;SDS011;6591;51.446;5.404;2023-02-11T05:56:42;11.67;;;8.07;;
13048;SDS011;6591;51.446;5.404;2023-02-11T05:59:11;14.67;;;7.97;;
13048;SDS011;6591;51.446;5.404;2023-02-11T06:01:40;12.93;;;8.10;;
13048;SDS011;6591;51.446;5.404;2023-02-11T06:04:07;12.73;;;7.40;;
13048;SDS011;6591;51.446;5.404;2023-02-11T06:06:37;11.20;;;7.93;;
13048;SDS011;6591;51.446;5.404;2023-02-11T06:09:04;12.07;;;8.20;;
13048;SDS011;6591;51.446;5.404;2023-02-11T06:11:31;12.20;;;8.40;;
13048;SDS011;6591;51.446;5.404;2023-02-11T06:13:58;12.07;;;7.83;;
13048;SDS011;6591;51.446;5.404;2023-02-11T06:16:26;14.70;;;8.40;;
13048;SDS011;6591;51.446;5.404;2023-02-11T06:18:53;14.37;;;8.57;;
13048;SDS011;6591;51.446;5.404;2023-02-11T06:21:21;19.63;;;9.43;;
13048;SDS011;6591;51.446;5.404;2023-02-11T06:23:56;13.10;;;8.90;;
13048;SDS011;6591;51.446;5.404;2023-02-11T06:26:23;12.07;;;9.13;;
13048;SDS011;6591;51.446;5.404;2023-02-11T06:28:50;15.10;;;10.23;;
13048;SDS011;6591;51.446;5.404;2023-02-11T06:31:17;14.07;;;9.70;;
13048;SDS011;6591;51.446;5.404;2023-02-11T06:33:44;16.00;;;9.07;;
13048;SDS011;6591;51.446;5.404;2023-02-11T06:36:12;15.13;;;9.43;;
13048;SDS011;6591;51.446;5.404;2023-02-11T06:38:46;13.80;;;9.47;;
13048;SDS011;6591;51.446;5.404;2023-02-11T06:41:15;14.40;;;9.37;;
13048;SDS011;6591;51.446;5.404;2023-02-11T06:43:45;16.53;;;9.93;;
13048;SDS011;6591;51.446;5.404;2023-02-11T06:46:14;14.47;;;10.27;;
13048;SDS011;6591;51.446;5.404;2023-02-11T06:48:44;18.10;;;11.20;;
13048;SDS011;6591;51.446;5.404;2023-02-11T06:51:11;16.13;;;10.40;;
13048;SDS011;6591;51.446;5.404;2023-02-11T06:53:41;15.37;;;10.30;;
13048;SDS011;6591;51.446;5.404;2023-02-11T06:56:14;15.90;;;11.33;;
13048;SDS011;6591;51.446;5.404;2023-02-11T06:58:44;20.37;;;12.70;;
13048;SDS011;6591;51.446;5.404;2023-02-11T07:01:14;18.80;;;12.20;;
13048;SDS011;6591;51.446;5.404;2023-02-11T07:03:42;18.10;;;11.20;;
13048;SDS011;6591;51.446;5.404;2023-02-11T07:06:15;17.57;;;11.47;;
13048;SDS011;6591;51.446;5.404;2023-02-11T07:08:46;17.70;;;11.60;;
13048;SDS011;6591;51.446;5.404;2023-02-11T07:11:16;17.93;;;10.67;;
13048;SDS011;6591;51.446;5.404;2023-02-11T07:13:46;19.13;;;10.97;;
13048;SDS011;6591;51.446;5.404;2023-02-11T07:16:14;16.83;;;12.30;;
13048;SDS011;6591;51.446;5.404;2023-02-11T07:18:45;17.50;;;11.83;;
13048;SDS011;6591;51.446;5.404;2023-02-11T07:21:14;17.60;;;11.57;;
13048;SDS011;6591;51.446;5.404;2023-02-11T07:23:45;17.43;;;11.50;;
13048;SDS011;6591;51.446;5.404;2023-02-11T07:26:15;19.73;;;12.47;;
13048;SDS011;6591;51.446;5.404;2023-02-11T07:28:45;16.40;;;11.27;;
13048;SDS011;6591;51.446;5.404;2023-02-11T07:31:13;17.73;;;11.73;;
13048;SDS011;6591;51.446;5.404;2023-02-11T07:33:50;19.77;;;11.93;;
13048;SDS011;6591;51.446;5.404;2023-02-11T07:36:23;20.47;;;13.00;;
13048;SDS011;6591;51.446;5.404;2023-02-11T07:38:50;20.93;;;12.90;;
13048;SDS011;6591;51.446;5.404;2023-02-11T07:41:18;20.13;;;13.43;;
13048;SDS011;6591;51.446;5.404;2023-02-11T07:43:47;22.57;;;13.83;;
13048;SDS011;6591;51.446;5.404;2023-02-11T07:46:17;23.00;;;13.80;;
13048;SDS011;6591;51.446;5.404;2023-02-11T07:48:50;22.10;;;14.70;;
13048;SDS011;6591;51.446;5.404;2023-02-11T07:51:22;24.50;;;14.57;;
13048;SDS011;6591;51.446;5.404;2023-02-11T07:53:57;22.20;;;14.83;;
13048;SDS011;6591;51.446;5.404;2023-02-11T07:56:26;20.57;;;14.80;;
13048;SDS011;6591;51.446;5.404;2023-02-11T07:58:58;21.57;;;14.80;;
13048;SDS011;6591;51.446;5.404;2023-02-11T08:01:28;23.37;;;14.90;;
13048;SDS011;6591;51.446;5.404;2023-02-11T08:04:00;24.40;;;15.20;;
13048;SDS011;6591;51.446;5.404;2023-02-11T08:06:29;24.50;;;16.53;;
13048;SDS011;6591;51.446;5.404;2023-02-11T08:09:03;27.47;;;15.77;;
13048;SDS011;6591;51.446;5.404;2023-02-11T08:11:33;28.53;;;17.13;;
13048;SDS011;6591;51.446;5.404;2023-02-11T08:14:00;26.30;;;16.63;;
13048;SDS011;6591;51.446;5.404;2023-02-11T08:16:28;27.43;;;18.03;;
13048;SDS011;6591;51.446;5.404;2023-02-11T08:19:04;25.20;;;16.60;;
13048;SDS011;6591;51.446;5.404;2023-02-11T08:21:39;27.17;;;17.83;;
13048;SDS011;6591;51.446;5.404;2023-02-11T08:24:06;25.63;;;16.80;;
13048;SDS011;6591;51.446;5.404;2023-02-11T08:26:37;31.20;;;18.33;;
13048;SDS011;6591;51.446;5.404;2023-02-11T08:29:06;33.13;;;18.83;;
13048;SDS011;6591;51.446;5.404;2023-02-11T08:31:37;29.93;;;18.50;;
13048;SDS011;6591;51.446;5.404;2023-02-11T08:34:09;31.77;;;20.90;;
13048;SDS011;6591;51.446;5.404;2023-02-11T08:36:44;26.27;;;17.93;;
13048;SDS011;6591;51.446;5.404;2023-02-11T08:39:17;30.13;;;19.67;;
13048;SDS011;6591;51.446;5.404;2023-02-11T08:41:49;30.77;;;19.87;;
13048;SDS011;6591;51.446;5.404;2023-02-11T08:44:19;29.77;;;18.50;;
13048;SDS011;6591;51.446;5.404;2023-02-11T08:46:48;27.70;;;18.07;;
13048;SDS011;6591;51.446;5.404;2023-02-11T08:49:16;31.47;;;19.50;;
13048;SDS011;6591;51.446;5.404;2023-02-11T08:51:44;30.27;;;18.57;;
13048;SDS011;6591;51.446;5.404;2023-02-11T08:54:12;31.03;;;19.63;;
13048;SDS011;6591;51.446;5.404;2023-02-11T08:56:39;26.27;;;18.30;;
13048;SDS011;6591;51.446;5.404;2023-02-11T08:59:07;28.73;;;19.13;;
13048;SDS011;6591;51.446;5.404;2023-02-11T09:01:39;28.93;;;19.17;;
13048;SDS011;6591;51.446;5.404;2023-02-11T09:04:10;30.03;;;18.97;;
13048;SDS011;6591;51.446;5.404;2023-02-11T09:06:37;29.10;;;18.80;;
13048;SDS011;6591;51.446;5.404;2023-02-11T09:09:04;30.47;;;19.03;;
13048;SDS011;6591;51.446;5.404;2023-02-11T09:11:33;33.07;;;20.07;;
13048;SDS011;6591;51.446;5.404;2023-02-11T09:14:02;29.37;;;19.53;;
13048;SDS011;6591;51.446;5.404;2023-02-11T09:16:31;29.83;;;19.87;;
13048;SDS011;6591;51.446;5.404;2023-02-11T09:19:01;28.17;;;19.10;;
13048;SDS011;6591;51.446;5.404;2023-02-11T09:21:30;29.93;;;19.23;;
13048;SDS011;6591;51.446;5.404;2023-02-11T09:23:58;30.87;;;19.13;;
13048;SDS011;6591;51.446;5.404;2023-02-11T09:26:26;34.23;;;19.93;;
13048;SDS011;6591;51.446;5.404;2023-02-11T09:28:59;34.17;;;19.73;;
13048;SDS011;6591;51.446;5.404;2023-02-11T09:31:28;28.20;;;19.27;;
13048;SDS011;6591;51.446;5.404;2023-02-11T09:33:58;32.20;;;20.63;;
13048;SDS011;6591;51.446;5.404;2023-02-11T09:36:30;33.57;;;20.67;;
13048;SDS011;6591;51.446;5.404;2023-02-11T09:39:03;37.40;;;21.47;;
13048;SDS011;6591;51.446;5.404;2023-02-11T09:44:34;33.43;;;20.70;;
13048;SDS011;6591;51.446;5.404;2023-02-11T09:50:39;31.50;;;20.33;;
13048;SDS011;6591;51.446;5.404;2023-02-11T09:55:44;36.57;;;22.10;;
13048;SDS011;6591;51.446;5.404;2023-02-11T09:58:18;36.33;;;22.60;;
13048;SDS011;6591;51.446;5.404;2023-02-11T10:01:04;35.87;;;23.27;;
13048;SDS011;6591;51.446;5.404;2023-02-11T10:07:29;40.07;;;24.17;;
13048;SDS011;6591;51.446;5.404;2023-02-11T10:13:00;35.33;;;21.70;;
13048;SDS011;6591;51.446;5.404;2023-02-11T10:22:21;34.27;;;21.17;;
13048;SDS011;6591;51.446;5.404;2023-02-11T10:25:04;35.63;;;22.40;;
13048;SDS011;6591;51.446;5.404;2023-02-11T10:30:58;34.13;;;22.20;;
13048;SDS011;6591;51.446;5.404;2023-02-11T10:36:28;32.50;;;21.37;;
13048;SDS011;6591;51.446;5.404;2023-02-11T10:39:01;34.70;;;23.03;;
13048;SDS011;6591;51.446;5.404;2023-02-11T10:41:40;34.63;;;22.40;;
13048;SDS011;6591;51.446;5.404;2023-02-11T10:44:18;36.97;;;22.63;;
13048;SDS011;6591;51.446;5.404;2023-02-11T10:47:00;37.37;;;22.33;;
13048;SDS011;6591;51.446;5.404;2023-02-11T10:49:43;35.63;;;22.23;;
13048;SDS011;6591;51.446;5.404;2023-02-11T10:52:13;36.97;;;24.03;;
13048;SDS011;6591;51.446;5.404;2023-02-11T10:55:14;36.70;;;22.30;;
13048;SDS011;6591;51.446;5.404;2023-02-11T10:57:51;33.53;;;22.30;;
13048;SDS011;6591;51.446;5.404;2023-02-11T11:00:36;34.57;;;22.40;;
13048;SDS011;6591;51.446;5.404;2023-02-11T11:03:20;35.33;;;22.83;;
13048;SDS011;6591;51.446;5.404;2023-02-11T11:05:52;37.17;;;23.00;;
13048;SDS011;6591;51.446;5.404;2023-02-11T11:11:12;34.43;;;22.97;;
13048;SDS011;6591;51.446;5.404;2023-02-11T11:16:33;35.90;;;23.53;;
13048;SDS011;6591;51.446;5.404;2023-02-11T11:24:15;35.13;;;23.93;;
13048;SDS011;6591;51.446;5.404;2023-02-11T11:26:59;34.97;;;23.57;;
13048;SDS011;6591;51.446;5.404;2023-02-11T11:32:05;34.40;;;23.47;;
13048;SDS011;6591;51.446;5.404;2023-02-11T11:34:53;33.17;;;22.70;;
13048;SDS011;6591;51.446;5.404;2023-02-11T11:37:27;33.90;;;23.07;;
13048;SDS011;6591;51.446;5.404;2023-02-11T11:45:51;34.83;;;23.93;;
13048;SDS011;6591;51.446;5.404;2023-02-11T11:48:27;37.80;;;23.70;;
13048;SDS011;6591;51.446;5.404;2023-02-11T11:51:03;32.73;;;22.93;;
13048;SDS011;6591;51.446;5.404;2023-02-11T11:53:40;35.53;;;23.20;;
13048;SDS011;6591;51.446;5.404;2023-02-11T11:56:27;35.40;;;24.03;;
13048;SDS011;6591;51.446;5.404;2023-02-11T11:59:02;40.87;;;24.83;;
13048;SDS011;6591;51.446;5.404;2023-02-11T12:12:28;40.70;;;25.60;;
13048;SDS011;6591;51.446;5.404;2023-02-11T12:25:11;34.53;;;23.37;;
13048;SDS011;6591;51.446;5.404;2023-02-11T12:27:46;38.87;;;24.40;;
13048;SDS011;6591;51.446;5.404;2023-02-11T12:30:38;36.63;;;24.90;;
13048;SDS011;6591;51.446;5.404;2023-02-11T12:42:54;39.53;;;24.63;;
13048;SDS011;6591;51.446;5.404;2023-02-11T12:52:28;32.37;;;22.53;;
13048;SDS011;6591;51.446;5.404;2023-02-11T12:55:24;34.97;;;24.77;;
13048;SDS011;6591;51.446;5.404;2023-02-11T12:58:02;39.60;;;25.23;;
13048;SDS011;6591;51.446;5.404;2023-02-11T13:00:44;40.50;;;26.87;;
13048;SDS011;6591;51.446;5.404;2023-02-11T13:03:39;35.40;;;25.30;;
13048;SDS011;6591;51.446;5.404;2023-02-11T13:06:24;39.10;;;25.60;;
13048;SDS011;6591;51.446;5.404;2023-02-11T13:09:20;33.70;;;25.13;;
13048;SDS011;6591;51.446;5.404;2023-02-11T13:11:55;37.00;;;25.67;;
13048;SDS011;6591;51.446;5.404;2023-02-11T13:14:47;36.13;;;25.27;;
13048;SDS011;6591;51.446;5.404;2023-02-11T13:17:22;39.77;;;27.50;;
13048;SDS011;6591;51.446;5.404;2023-02-11T13:20:04;38.23;;;26.37;;
13048;SDS011;6591;51.446;5.404;2023-02-11T13:23:05;39.57;;;26.60;;
13048;SDS011;6591;51.446;5.404;2023-02-11T13:26:14;35.10;;;24.23;;
13048;SDS011;6591;51.446;5.404;2023-02-11T13:29:00;35.20;;;25.67;;
13048;SDS011;6591;51.446;5.404;2023-02-11T13:31:51;36.10;;;25.27;;
13048;SDS011;6591;51.446;5.404;2023-02-11T13:37:12;36.97;;;27.10;;
13048;SDS011;6591;51.446;5.404;2023-02-11T13:39:56;35.57;;;26.47;;
13048;SDS011;6591;51.446;5.404;2023-02-11T13:42:48;33.83;;;24.00;;
13048;SDS011;6591;51.446;5.404;2023-02-11T13:45:39;33.20;;;24.60;;
13048;SDS011;6591;51.446;5.404;2023-02-11T13:48:16;33.80;;;24.50;;
13048;SDS011;6591;51.446;5.404;2023-02-11T13:50:50;31.20;;;23.77;;
13048;SDS011;6591;51.446;5.404;2023-02-11T13:53:22;32.03;;;23.53;;
13048;SDS011;6591;51.446;5.404;2023-02-11T13:55:51;30.57;;;23.00;;
13048;SDS011;6591;51.446;5.404;2023-02-11T13:58:48;32.40;;;23.33;;
13048;SDS011;6591;51.446;5.404;2023-02-11T14:04:32;29.07;;;22.80;;
13048;SDS011;6591;51.446;5.404;2023-02-11T14:07:30;29.73;;;22.97;;
13048;SDS011;6591;51.446;5.404;2023-02-11T14:10:47;27.33;;;21.63;;
13048;SDS011;6591;51.446;5.404;2023-02-11T14:13:27;27.90;;;21.07;;
13048;SDS011;6591;51.446;5.404;2023-02-11T14:16:07;27.20;;;21.47;;
13048;SDS011;6591;51.446;5.404;2023-02-11T14:21:20;27.63;;;19.50;;
13048;SDS011;6591;51.446;5.404;2023-02-11T14:32:39;27.47;;;21.73;;
13048;SDS011;6591;51.446;5.404;2023-02-11T14:35:38;28.63;;;21.67;;
13048;SDS011;6591;51.446;5.404;2023-02-11T14:41:31;25.73;;;20.07;;
13048;SDS011;6591;51.446;5.404;2023-02-11T14:44:13;28.13;;;20.03;;
13048;SDS011;6591;51.446;5.404;2023-02-11T14:46:52;26.87;;;19.73;;
13048;SDS011;6591;51.446;5.404;2023-02-11T14:49:28;27.77;;;20.43;;
13048;SDS011;6591;51.446;5.404;2023-02-11T14:55:03;25.10;;;19.53;;
13048;SDS011;6591;51.446;5.404;2023-02-11T14:57:32;23.50;;;19.57;;
13048;SDS011;6591;51.446;5.404;2023-02-11T15:00:01;24.47;;;19.57;;
13048;SDS011;6591;51.446;5.404;2023-02-11T15:02:40;25.20;;;18.77;;
13048;SDS011;6591;51.446;5.404;2023-02-11T15:05:13;24.07;;;18.50;;
13048;SDS011;6591;51.446;5.404;2023-02-11T15:07:55;22.07;;;18.23;;
13048;SDS011;6591;51.446;5.404;2023-02-11T15:10:34;21.73;;;17.93;;
13048;SDS011;6591;51.446;5.404;2023-02-11T15:13:08;19.83;;;17.17;;
13048;SDS011;6591;51.446;5.404;2023-02-11T15:15:45;26.87;;;17.60;;
13048;SDS011;6591;51.446;5.404;2023-02-11T15:18:21;25.40;;;18.17;;
13048;SDS011;6591;51.446;5.404;2023-02-11T15:20:58;23.13;;;17.30;;
13048;SDS011;6591;51.446;5.404;2023-02-11T15:23:26;23.87;;;19.03;;
13048;SDS011;6591;51.446;5.404;2023-02-11T15:25:56;24.03;;;18.23;;
13048;SDS011;6591;51.446;5.404;2023-02-11T15:28:29;24.80;;;19.03;;
13048;SDS011;6591;51.446;5.404;2023-02-11T15:31:13;23.20;;;19.40;;
13048;SDS011;6591;51.446;5.404;2023-02-11T15:33:43;24.67;;;19.10;;
13048;SDS011;6591;51.446;5.404;2023-02-11T15:36:11;23.60;;;19.43;;
13048;SDS011;6591;51.446;5.404;2023-02-11T15:38:40;27.87;;;19.00;;
13048;SDS011;6591;51.446;5.404;2023-02-11T15:41:27;23.37;;;18.57;;
13048;SDS011;6591;51.446;5.404;2023-02-11T15:44:04;24.60;;;19.23;;
13048;SDS011;6591;51.446;5.404;2023-02-11T15:46:35;26.23;;;20.10;;
13048;SDS011;6591;51.446;5.404;2023-02-11T15:49:05;26.20;;;19.43;;
13048;SDS011;6591;51.446;5.404;2023-02-11T15:51:44;22.90;;;17.97;;
13048;SDS011;6591;51.446;5.404;2023-02-11T15:54:16;25.07;;;18.63;;
13048;SDS011;6591;51.446;5.404;2023-02-11T15:56:48;22.03;;;17.40;;
13048;SDS011;6591;51.446;5.404;2023-02-11T16:02:15;24.60;;;17.97;;
13048;SDS011;6591;51.446;5.404;2023-02-11T16:04:48;23.90;;;18.80;;
13048;SDS011;6591;51.446;5.404;2023-02-11T16:10:19;22.00;;;17.60;;
13048;SDS011;6591;51.446;5.404;2023-02-11T16:21:10;22.27;;;17.13;;
13048;SDS011;6591;51.446;5.404;2023-02-11T16:23:48;24.73;;;18.50;;
13048;SDS011;6591;51.446;5.404;2023-02-11T16:26:37;23.17;;;18.00;;
13048;SDS011;6591;51.446;5.404;2023-02-11T16:29:09;23.60;;;18.43;;
13048;SDS011;6591;51.446;5.404;2023-02-11T16:31:47;25.40;;;19.83;;
13048;SDS011;6591;51.446;5.404;2023-02-11T16:36:44;25.00;;;18.93;;
13048;SDS011;6591;51.446;5.404;2023-02-11T16:39:12;24.40;;;18.27;;
13048;SDS011;6591;51.446;5.404;2023-02-11T16:41:42;25.17;;;18.70;;
13048;SDS011;6591;51.446;5.404;2023-02-11T16:44:09;22.30;;;17.20;;
13048;SDS011;6591;51.446;5.404;2023-02-11T16:46:36;22.63;;;17.63;;
13048;SDS011;6591;51.446;5.404;2023-02-11T16:49:15;23.83;;;17.53;;
13048;SDS011;6591;51.446;5.404;2023-02-11T16:51:47;25.13;;;18.20;;
13048;SDS011;6591;51.446;5.404;2023-02-11T16:54:17;24.87;;;18.37;;
13048;SDS011;6591;51.446;5.404;2023-02-11T16:56:45;24.27;;;18.40;;
13048;SDS011;6591;51.446;5.404;2023-02-11T16:59:12;23.27;;;18.03;;
13048;SDS011;6591;51.446;5.404;2023-02-11T17:01:40;24.80;;;17.57;;
13048;SDS011;6591;51.446;5.404;2023-02-11T17:06:50;24.77;;;17.33;;
13048;SDS011;6591;51.446;5.404;2023-02-11T17:09:21;22.90;;;17.87;;
13048;SDS011;6591;51.446;5.404;2023-02-11T17:11:54;25.63;;;16.73;;
13048;SDS011;6591;51.446;5.404;2023-02-11T17:14:21;24.13;;;17.43;;
13048;SDS011;6591;51.446;5.404;2023-02-11T17:16:48;24.63;;;17.03;;
13048;SDS011;6591;51.446;5.404;2023-02-11T17:19:16;23.43;;;16.43;;
13048;SDS011;6591;51.446;5.404;2023-02-11T17:21:47;20.87;;;16.73;;
13048;SDS011;6591;51.446;5.404;2023-02-11T17:24:17;24.90;;;17.23;;
13048;SDS011;6591;51.446;5.404;2023-02-11T17:26:46;23.53;;;17.70;;
13048;SDS011;6591;51.446;5.404;2023-02-11T17:29:16;22.87;;;17.83;;
13048;SDS011;6591;51.446;5.404;2023-02-11T17:31:47;23.60;;;18.63;;
13048;SDS011;6591;51.446;5.404;2023-02-11T17:34:15;25.73;;;18.80;;
13048;SDS011;6591;51.446;5.404;2023-02-11T17:36:43;24.23;;;18.13;;
13048;SDS011;6591;51.446;5.404;2023-02-11T17:39:10;27.10;;;17.63;;
13048;SDS011;6591;51.446;5.404;2023-02-11T17:41:38;24.23;;;17.23;;
13048;SDS011;6591;51.446;5.404;2023-02-11T17:44:06;24.03;;;17.23;;
13048;SDS011;6591;51.446;5.404;2023-02-11T17:46:37;24.03;;;17.40;;
13048;SDS011;6591;51.446;5.404;2023-02-11T17:49:04;23.37;;;17.57;;
13048;SDS011;6591;51.446;5.404;2023-02-11T17:51:33;21.80;;;16.43;;
13048;SDS011;6591;51.446;5.404;2023-02-11T17:54:05;24.30;;;17.70;;
13048;SDS011;6591;51.446;5.404;2023-02-11T17:56:37;25.93;;;18.67;;
13048;SDS011;6591;51.446;5.404;2023-02-11T17:59:05;25.60;;;19.17;;
13048;SDS011;6591;51.446;5.404;2023-02-11T18:01:37;24.50;;;18.30;;
13048;SDS011;6591;51.446;5.404;2023-02-11T18:04:09;24.63;;;17.73;;
13048;SDS011;6591;51.446;5.404;2023-02-11T18:06:40;25.87;;;18.83;;